Sandusky, Michigan
Current Conditions -  °F | °C
As of 9:15 AM on Monday 20 Oct 2014 (Local Time) from KCFS Reporting Station
Overcast Overcast  
Wind Chill: 44°   Ceiling: 4900
Heat Index: 48°   Visibility: 10mi
Dew Point: 46°   Wind: 8mph
Humidity: 92%   Direction: 200°SSW
Pressure: 29.81"   Gusts: NA
Location:  43.42°N, 82.83°W
Report Text: KCFS 201315Z AUTO 20007KT 10SM BKN049 BKN065 OVC085 09/08 A2981 RMK AO2 T00880075
Loading
Personal Weather Stations






























Interactive Weather Map
Tropical Storm Tracking
New forecast layout! Learn more

10-Day Weather Forecast

Advertisements
Track Severe Weather on mobile